createdAt,value
2017-11-28T00:01:07.184Z,4
2017-11-28T00:02:17.361Z,4
2017-11-28T00:03:26.980Z,4
2017-11-28T00:04:36.212Z,4
2017-11-28T00:05:46.166Z,4
2017-11-28T00:06:56.300Z,4
2017-11-28T00:08:06.353Z,4
2017-11-28T00:09:15.681Z,4
2017-11-28T00:10:25.489Z,4
2017-11-28T00:11:35.700Z,4
2017-11-28T00:12:45.030Z,0
2017-11-28T00:13:54.950Z,4
2017-11-28T00:15:04.589Z,4
2017-11-28T00:16:14.797Z,4
2017-11-28T00:17:25.064Z,4
2017-11-28T00:18:34.976Z,4
2017-11-28T00:19:44.712Z,4
2017-11-28T00:20:54.580Z,4
2017-11-28T00:22:04.095Z,4
2017-11-28T00:23:13.905Z,4
2017-11-28T00:24:24.058Z,4
2017-11-28T00:25:33.625Z,4
2017-11-28T00:26:43.380Z,4
2017-11-28T00:27:52.931Z,4
2017-11-28T00:29:02.523Z,4
2017-11-28T00:30:12.358Z,4
2017-11-28T00:31:22.144Z,4
2017-11-28T00:32:31.688Z,4
2017-11-28T00:33:41.936Z,4
2017-11-28T00:34:51.469Z,4
2017-11-28T00:36:01.294Z,4
2017-11-28T00:37:11.295Z,4
2017-11-28T00:38:21.036Z,4
2017-11-28T00:39:30.516Z,4
2017-11-28T00:40:40.250Z,4
2017-11-28T00:41:50.267Z,4
2017-11-28T00:43:00.019Z,0
2017-11-28T00:44:10.032Z,0
2017-11-28T00:45:19.504Z,0
2017-11-28T00:46:29.252Z,0
2017-11-28T00:47:39.261Z,0
2017-11-28T00:48:49.316Z,0
2017-11-28T00:49:59.334Z,0
2017-11-28T00:51:09.155Z,0
2017-11-28T00:52:18.650Z,0
2017-11-28T00:53:28.728Z,0
2017-11-28T00:54:38.723Z,0
2017-11-28T00:55:48.475Z,0
2017-11-28T00:56:58.493Z,0
2017-11-28T00:58:08.499Z,0
2017-11-28T00:59:18.245Z,0
2017-11-28T01:00:28.254Z,0
2017-11-28T01:01:37.756Z,0
2017-11-28T01:02:47.717Z,0
2017-11-28T01:03:57.762Z,0
2017-11-28T01:05:07.779Z,0
2017-11-28T01:06:17.830Z,0
2017-11-28T01:07:27.568Z,0
2017-11-28T01:08:37.042Z,0
2017-11-28T01:09:46.796Z,0
2017-11-28T01:10:56.811Z,0
2017-11-28T01:12:06.860Z,0
2017-11-28T01:13:16.892Z,0
2017-11-28T01:14:26.945Z,0
2017-11-28T01:15:36.747Z,0
2017-11-28T01:16:46.221Z,0
2017-11-28T01:17:56.222Z,0
2017-11-28T01:19:06.309Z,0
2017-11-28T01:20:16.325Z,0
2017-11-28T01:21:25.814Z,0
2017-11-28T01:22:35.546Z,0
2017-11-28T01:23:45.087Z,0
2017-11-28T01:24:54.879Z,0
2017-11-28T01:26:04.883Z,0
2017-11-28T01:27:14.635Z,0
2017-11-28T01:28:24.733Z,0
2017-11-28T01:29:34.526Z,0
2017-11-28T01:30:44.551Z,0
2017-11-28T01:31:54.299Z,0
2017-11-28T01:33:04.300Z,0
2017-11-28T01:34:14.327Z,0
2017-11-28T01:35:24.369Z,0
2017-11-28T01:36:34.131Z,0
2017-11-28T01:37:43.597Z,0
2017-11-28T01:38:53.588Z,0
2017-11-28T01:40:03.073Z,0
2017-11-28T01:41:12.950Z,0
2017-11-28T01:42:22.680Z,0
2017-11-28T01:43:32.256Z,0
2017-11-28T01:44:42.330Z,0
2017-11-28T01:45:52.336Z,0
2017-11-28T01:47:02.356Z,0
2017-11-28T01:48:12.123Z,0
2017-11-28T01:49:22.218Z,0
2017-11-28T01:50:32.229Z,0
2017-11-28T01:51:42.009Z,0
2017-11-28T01:52:51.877Z,0
2017-11-28T01:54:01.649Z,0
2017-11-28T01:55:11.726Z,0
2017-11-28T01:56:21.485Z,0
2017-11-28T01:57:30.948Z,0
2017-11-28T01:58:40.967Z,0
2017-11-28T01:59:50.752Z,0
2017-11-28T02:01:00.769Z,0
2017-11-28T02:02:09.963Z,0
2017-11-28T02:03:19.855Z,0
2017-11-28T02:04:29.977Z,0
2017-11-28T02:05:40.020Z,0
2017-11-28T02:06:49.870Z,0
2017-11-28T02:07:59.925Z,0
2017-11-28T02:09:09.937Z,0
2017-11-28T02:10:19.957Z,0
2017-11-28T02:11:42.843Z,0
2017-11-28T02:12:52.916Z,0
2017-11-28T02:14:02.933Z,0
2017-11-28T02:15:12.670Z,0
2017-11-28T02:16:22.427Z,0
2017-11-28T02:17:32.448Z,0
2017-11-28T02:18:41.734Z,0
2017-11-28T02:19:51.753Z,0
2017-11-28T02:21:01.902Z,0
2017-11-28T02:22:11.676Z,0
2017-11-28T02:23:21.675Z,0
2017-11-28T02:24:31.574Z,0
2017-11-28T02:25:41.586Z,0
2017-11-28T02:26:51.695Z,0
2017-11-28T02:28:01.161Z,0
2017-11-28T02:29:10.903Z,0
2017-11-28T02:30:20.956Z,0
2017-11-28T02:31:30.702Z,0
2017-11-28T02:32:40.452Z,0
2017-11-28T02:33:50.193Z,0
2017-11-28T02:34:59.410Z,0
2017-11-28T02:36:08.920Z,0
2017-11-28T02:37:18.732Z,0
2017-11-28T02:38:28.784Z,0
2017-11-28T02:39:38.537Z,0
2017-11-28T02:40:48.325Z,0
2017-11-28T02:41:58.113Z,0
2017-11-28T02:43:07.852Z,0
2017-11-28T02:44:18.090Z,0
2017-11-28T02:45:28.109Z,0
2017-11-28T02:46:38.156Z,0
2017-11-28T02:47:48.319Z,0
2017-11-28T02:48:58.602Z,0
2017-11-28T02:50:08.749Z,0
2017-11-28T02:51:18.664Z,0
2017-11-28T02:52:28.406Z,0
2017-11-28T02:53:37.964Z,0
2017-11-28T02:54:47.974Z,0
2017-11-28T02:55:57.998Z,0
2017-11-28T02:57:08.048Z,0
2017-11-28T02:58:17.810Z,0
2017-11-28T02:59:27.590Z,0
2017-11-28T03:00:37.620Z,0
2017-11-28T03:01:47.634Z,0
2017-11-28T03:02:57.692Z,0
2017-11-28T03:04:07.468Z,0
2017-11-28T03:05:17.083Z,0
2017-11-28T03:06:26.570Z,0
2017-11-28T03:07:36.670Z,0
2017-11-28T03:08:46.407Z,0
2017-11-28T03:09:56.634Z,0
2017-11-28T03:11:06.431Z,0
2017-11-28T03:12:16.165Z,0
2017-11-28T03:13:25.902Z,0
2017-11-28T03:14:35.982Z,0
2017-11-28T03:15:45.176Z,0
2017-11-28T03:16:55.012Z,0
2017-11-28T03:18:05.083Z,0
2017-11-28T03:19:14.859Z,0
2017-11-28T03:20:24.637Z,0
2017-11-28T03:21:34.654Z,0
2017-11-28T03:22:44.665Z,0
2017-11-28T03:23:54.677Z,0
2017-11-28T03:25:04.683Z,0
2017-11-28T03:26:14.465Z,0
2017-11-28T03:27:24.235Z,0
2017-11-28T03:28:33.978Z,0
2017-11-28T03:29:43.990Z,0
2017-11-28T03:30:54.053Z,0
2017-11-28T03:32:03.605Z,0
2017-11-28T03:33:13.088Z,0
2017-11-28T03:34:22.868Z,0
2017-11-28T03:35:32.938Z,0
2017-11-28T03:36:43.006Z,0
2017-11-28T03:37:52.757Z,0
2017-11-28T03:39:02.509Z,0
2017-11-28T03:40:12.627Z,0
2017-11-28T03:41:22.404Z,0
2017-11-28T03:42:32.216Z,0
2017-11-28T03:43:41.407Z,0
2017-11-28T03:44:51.207Z,0
2017-11-28T03:46:01.301Z,0
2017-11-28T03:47:11.034Z,0
2017-11-28T03:48:20.654Z,0
2017-11-28T03:49:30.793Z,0
2017-11-28T03:50:40.835Z,0
2017-11-28T03:51:50.636Z,0
2017-11-28T03:53:00.732Z,0
2017-11-28T03:54:10.764Z,0
2017-11-28T03:55:20.796Z,0
2017-11-28T03:56:30.326Z,0
2017-11-28T03:57:40.351Z,0
2017-11-28T03:58:49.816Z,0
2017-11-28T03:59:59.863Z,0
2017-11-28T04:01:09.692Z,0
2017-11-28T04:02:19.701Z,0
2017-11-28T04:03:29.753Z,0
2017-11-28T04:04:39.303Z,0
2017-11-28T04:05:49.345Z,0
2017-11-28T04:06:59.363Z,0
2017-11-28T04:08:09.102Z,0
2017-11-28T04:09:19.158Z,0
2017-11-28T04:10:29.142Z,0
2017-11-28T04:11:38.882Z,0
2017-11-28T04:12:48.631Z,0
2017-11-28T04:13:58.643Z,0
2017-11-28T04:15:08.900Z,0
2017-11-28T04:16:18.651Z,0
2017-11-28T04:17:28.658Z,0
2017-11-28T04:18:38.682Z,0
2017-11-28T04:19:48.685Z,0
2017-11-28T04:20:58.689Z,0
2017-11-28T04:22:08.157Z,0
2017-11-28T04:23:17.656Z,0
2017-11-28T04:24:27.666Z,0
2017-11-28T04:25:37.399Z,0
2017-11-28T04:26:47.413Z,0
2017-11-28T04:27:57.427Z,0
2017-11-28T04:29:07.448Z,0
2017-11-28T04:30:16.909Z,0
2017-11-28T04:31:26.643Z,0
2017-11-28T04:32:36.651Z,0
2017-11-28T04:33:46.384Z,0
2017-11-28T04:34:56.385Z,0
2017-11-28T04:36:05.859Z,0
2017-11-28T04:37:15.864Z,0
2017-11-28T04:38:25.881Z,0
2017-11-28T04:39:35.890Z,0
2017-11-28T04:40:45.638Z,0
2017-11-28T04:41:55.101Z,0
2017-11-28T04:43:04.838Z,0
2017-11-28T04:44:14.575Z,0
2017-11-28T04:45:24.043Z,0
2017-11-28T04:46:33.782Z,0
2017-11-28T04:47:43.261Z,0
2017-11-28T04:48:53.257Z,0
2017-11-28T04:50:02.997Z,0
2017-11-28T04:51:12.540Z,0
2017-11-28T04:52:22.532Z,0
2017-11-28T04:53:32.001Z,0
2017-11-28T04:54:41.466Z,0
2017-11-28T04:55:50.931Z,0
2017-11-28T04:57:00.674Z,0
2017-11-28T04:58:10.418Z,0
2017-11-28T04:59:20.467Z,0
2017-11-28T05:00:30.472Z,0
2017-11-28T05:01:40.477Z,0
2017-11-28T05:02:50.213Z,0
2017-11-28T05:04:00.225Z,0
2017-11-28T05:05:09.696Z,0
2017-11-28T05:06:18.898Z,0
2017-11-28T05:07:28.637Z,0
2017-11-28T05:08:38.099Z,0
2017-11-28T05:09:47.562Z,0
2017-11-28T05:10:57.301Z,0
2017-11-28T05:12:07.049Z,0
2017-11-28T05:13:16.790Z,0
2017-11-28T05:14:26.821Z,0
2017-11-28T05:15:36.575Z,0
2017-11-28T05:16:46.588Z,0
2017-11-28T05:17:56.335Z,0
2017-11-28T05:19:06.342Z,0
2017-11-28T05:20:16.088Z,0
2017-11-28T05:21:26.155Z,0
2017-11-28T05:22:36.168Z,0
2017-11-28T05:23:45.366Z,0
2017-11-28T05:24:55.369Z,0
2017-11-28T05:26:05.380Z,0
2017-11-28T05:27:15.391Z,0
2017-11-28T05:28:25.395Z,0
2017-11-28T05:29:34.865Z,0
2017-11-28T05:30:44.901Z,0
2017-11-28T05:31:54.359Z,0
2017-11-28T05:33:04.371Z,0
2017-11-28T05:34:14.379Z,0
2017-11-28T05:35:24.150Z,0
2017-11-28T05:36:33.884Z,0
2017-11-28T05:37:43.904Z,0
2017-11-28T05:38:53.673Z,0
2017-11-28T05:40:03.447Z,4
2017-11-28T05:41:13.188Z,4
2017-11-28T05:42:22.676Z,4
2017-11-28T05:43:32.705Z,0
2017-11-28T05:44:42.713Z,0
2017-11-28T05:45:52.728Z,0
2017-11-28T05:47:02.745Z,0
2017-11-28T05:48:12.756Z,0
2017-11-28T05:49:22.505Z,0
2017-11-28T05:50:32.518Z,0
2017-11-28T05:51:42.254Z,0
2017-11-28T05:52:51.554Z,0
2017-11-28T05:54:01.565Z,0
2017-11-28T05:55:11.317Z,0
2017-11-28T05:56:21.325Z,0
2017-11-28T05:57:31.329Z,0
2017-11-28T05:58:41.075Z,0
2017-11-28T05:59:50.561Z,0
2017-11-28T06:01:00.298Z,0
2017-11-28T06:02:10.077Z,0
2017-11-28T06:03:19.544Z,0
2017-11-28T06:04:29.557Z,0
2017-11-28T06:05:39.294Z,0
2017-11-28T06:06:49.026Z,0
2017-11-28T06:07:59.051Z,0
2017-11-28T06:09:09.052Z,0
2017-11-28T06:10:19.078Z,0
2017-11-28T06:11:28.668Z,0
2017-11-28T06:12:38.482Z,0
2017-11-28T06:13:47.948Z,0
2017-11-28T06:14:57.419Z,0
2017-11-28T06:16:07.440Z,0
2017-11-28T06:17:17.454Z,0
2017-11-28T06:18:27.462Z,0
2017-11-28T06:19:37.492Z,0
2017-11-28T06:20:47.241Z,0
2017-11-28T06:21:56.720Z,0
2017-11-28T06:23:06.468Z,0
2017-11-28T06:24:16.491Z,0
2017-11-28T06:25:26.227Z,0
2017-11-28T06:26:36.227Z,0
2017-11-28T06:27:45.704Z,0
2017-11-28T06:28:55.171Z,4
2017-11-28T06:30:05.207Z,4
2017-11-28T06:31:14.967Z,4
2017-11-28T06:32:24.706Z,4
2017-11-28T06:33:34.716Z,4
2017-11-28T06:34:44.730Z,4
2017-11-28T06:35:54.473Z,4
2017-11-28T06:37:04.531Z,4
2017-11-28T06:38:14.264Z,4
2017-11-28T06:39:24.009Z,4
2017-11-28T06:40:34.023Z,4
2017-11-28T06:41:44.028Z,4
2017-11-28T06:42:53.768Z,0
2017-11-28T06:44:03.777Z,4
2017-11-28T06:45:13.786Z,8
2017-11-28T06:46:23.792Z,4
2017-11-28T06:47:33.555Z,8
2017-11-28T06:48:43.565Z,8
2017-11-28T06:49:53.037Z,8
2017-11-28T06:51:02.776Z,12
2017-11-28T06:52:13.047Z,12
2017-11-28T06:53:22.783Z,12
2017-11-28T06:54:32.787Z,16
2017-11-28T06:55:42.796Z,16
2017-11-28T06:56:52.260Z,16
2017-11-28T06:58:01.998Z,16
2017-11-28T06:59:12.008Z,20
2017-11-28T07:00:22.026Z,20
2017-11-28T07:01:32.024Z,28
2017-11-28T07:02:41.765Z,28
2017-11-28T07:03:51.770Z,32
2017-11-28T07:05:01.519Z,32
2017-11-28T07:06:11.257Z,36
2017-11-28T07:07:20.713Z,44
2017-11-28T07:08:30.449Z,44
2017-11-28T07:09:40.459Z,48
2017-11-28T07:10:50.188Z,52
2017-11-28T07:12:00.222Z,52
2017-11-28T07:13:10.241Z,56
2017-11-28T07:14:20.003Z,64
2017-11-28T07:15:29.599Z,64
2017-11-28T07:16:39.379Z,64
2017-11-28T07:17:49.392Z,64
2017-11-28T07:18:59.405Z,68
2017-11-28T07:20:08.885Z,68
2017-11-28T07:21:18.629Z,64
2017-11-28T07:22:28.437Z,68
2017-11-28T07:23:38.443Z,72
2017-11-28T07:24:48.182Z,72
2017-11-28T07:25:57.705Z,72
2017-11-28T07:27:07.721Z,80
2017-11-28T07:28:17.730Z,84
2017-11-28T07:29:27.465Z,100
2017-11-28T07:30:36.938Z,120
2017-11-28T07:31:46.683Z,136
2017-11-28T07:32:56.436Z,148
2017-11-28T07:34:06.200Z,180
2017-11-28T07:35:15.669Z,228
2017-11-28T07:36:25.200Z,244
2017-11-28T07:37:34.683Z,248
2017-11-28T07:38:43.887Z,260
2017-11-28T07:39:53.901Z,268
2017-11-28T07:41:03.639Z,276
2017-11-28T07:42:13.376Z,328
2017-11-28T07:43:22.847Z,348
2017-11-28T07:44:32.846Z,324
2017-11-28T07:45:42.379Z,332
2017-11-28T07:46:52.142Z,372
2017-11-28T07:48:02.148Z,440
2017-11-28T07:49:12.173Z,460
2017-11-28T07:50:21.935Z,452
2017-11-28T07:51:31.404Z,460
2017-11-28T07:52:41.140Z,488
2017-11-28T07:53:50.871Z,500
2017-11-28T07:55:00.341Z,508
2017-11-28T07:56:10.088Z,440
2017-11-28T07:57:20.075Z,380
2017-11-28T07:58:30.082Z,448
2017-11-28T07:59:39.555Z,544
2017-11-28T08:00:49.291Z,628
2017-11-28T08:01:59.295Z,700
2017-11-28T08:03:09.313Z,756
2017-11-28T08:04:19.324Z,800
2017-11-28T08:05:29.053Z,828
2017-11-28T08:06:39.086Z,804
2017-11-28T08:07:49.093Z,800
2017-11-28T08:08:59.101Z,892
2017-11-28T08:10:09.138Z,944
2017-11-28T08:11:18.883Z,876
2017-11-28T08:12:28.087Z,708
2017-11-28T08:13:38.128Z,752
2017-11-28T08:14:47.865Z,888
2017-11-28T08:15:57.601Z,868
2017-11-28T08:17:07.646Z,808
2017-11-28T08:18:16.916Z,740
2017-11-28T08:19:26.926Z,724
2017-11-28T08:20:36.670Z,732
2017-11-28T08:21:46.406Z,776
2017-11-28T08:22:56.143Z,824
2017-11-28T08:24:06.160Z,832
2017-11-28T08:25:15.899Z,872
2017-11-28T08:26:25.629Z,920
2017-11-28T08:27:35.650Z,992
2017-11-28T08:28:44.841Z,1096
2017-11-28T08:29:54.628Z,1272
2017-11-28T08:31:04.370Z,1336
2017-11-28T08:32:14.117Z,1388
2017-11-28T08:33:23.853Z,1424
2017-11-28T08:34:33.745Z,1512
2017-11-28T08:35:42.940Z,1580
2017-11-28T08:36:52.722Z,1524
2017-11-28T08:38:02.735Z,1500
2017-11-28T08:39:12.738Z,1528
2017-11-28T08:40:22.748Z,1484
2017-11-28T08:41:32.794Z,1312
2017-11-28T08:42:42.822Z,1152
2017-11-28T08:43:52.292Z,1032
2017-11-28T08:45:02.043Z,1004
2017-11-28T08:46:12.053Z,988
2017-11-28T08:47:22.066Z,980
2017-11-28T08:48:32.075Z,1196
2017-11-28T08:49:41.817Z,1384
2017-11-28T08:50:51.287Z,1280
2017-11-28T08:52:01.303Z,1228
2017-11-28T08:53:11.322Z,1120
2017-11-28T08:54:21.336Z,1052
2017-11-28T08:55:31.098Z,996
2017-11-28T08:56:40.331Z,956
2017-11-28T08:57:50.364Z,964
2017-11-28T08:58:59.577Z,964
2017-11-28T09:00:09.618Z,1004
2017-11-28T09:01:19.517Z,1060
2017-11-28T09:02:28.717Z,1220
2017-11-28T09:03:38.456Z,1216
2017-11-28T09:04:47.957Z,1224
2017-11-28T09:05:57.730Z,1200
2017-11-28T09:07:07.255Z,1272
2017-11-28T09:08:17.264Z,1312
2017-11-28T09:09:26.465Z,1288
2017-11-28T09:10:35.663Z,1240
2017-11-28T09:11:45.135Z,1232
2017-11-28T09:12:54.892Z,1232
2017-11-28T09:14:04.626Z,1304
2017-11-28T09:15:14.635Z,1460
2017-11-28T09:16:24.649Z,1468
2017-11-28T09:17:34.397Z,1468
2017-11-28T09:18:44.407Z,1528
2017-11-28T09:19:54.146Z,1560
2017-11-28T09:21:03.883Z,1700
2017-11-28T09:22:13.350Z,1636
2017-11-28T09:23:23.359Z,1612
2017-11-28T09:24:32.888Z,1576
2017-11-28T09:25:42.904Z,1524
2017-11-28T09:26:52.691Z,1452
2017-11-28T09:28:02.424Z,1400
2017-11-28T09:29:12.437Z,1400
2017-11-28T09:30:22.439Z,1460
2017-11-28T09:31:32.448Z,1504
2017-11-28T09:32:42.187Z,1516
2017-11-28T09:33:52.191Z,1528
2017-11-28T09:35:01.666Z,1456
2017-11-28T09:36:11.416Z,1460
2017-11-28T09:37:20.878Z,1376
2017-11-28T09:38:30.634Z,1356
2017-11-28T09:39:40.639Z,1356
2017-11-28T09:40:50.382Z,1276
2017-11-28T09:41:59.864Z,1356
2017-11-28T09:43:09.601Z,1436
2017-11-28T09:44:19.385Z,1376
2017-11-28T09:45:29.421Z,1444
2017-11-28T09:46:39.435Z,1632
2017-11-28T09:47:49.217Z,1784
2017-11-28T09:48:58.977Z,2004
2017-11-28T09:50:08.176Z,1992
2017-11-28T09:51:18.198Z,1764
2017-11-28T09:52:28.245Z,1796
2017-11-28T09:53:37.996Z,1680
2017-11-28T09:54:47.884Z,1720
2017-11-28T09:55:58.134Z,1664
2017-11-28T09:57:07.891Z,1756
2017-11-28T09:58:17.637Z,1820
2017-11-28T09:59:27.640Z,2164
2017-11-28T10:00:37.655Z,2572
2017-11-28T10:01:47.670Z,2652
2017-11-28T10:02:57.667Z,2220
2017-11-28T10:04:07.146Z,2024
2017-11-28T10:05:16.879Z,1856
2017-11-28T10:06:26.887Z,1920
2017-11-28T10:07:36.616Z,1928
2017-11-28T10:08:46.636Z,1964
2017-11-28T10:09:56.377Z,2132
2017-11-28T10:11:06.381Z,2116
2017-11-28T10:12:16.396Z,2096
2017-11-28T10:13:25.865Z,2008
2017-11-28T10:14:35.599Z,2004
2017-11-28T10:15:45.336Z,2172
2017-11-28T10:16:54.845Z,2244
2017-11-28T10:18:04.852Z,2396
2017-11-28T10:19:14.593Z,2804
2017-11-28T10:20:24.595Z,2280
2017-11-28T10:21:34.353Z,1948
2017-11-28T10:22:44.106Z,1936
2017-11-28T10:23:54.119Z,2032
2017-11-28T10:25:04.140Z,1712
2017-11-28T10:26:13.622Z,1488
2017-11-28T10:27:23.096Z,1764
2017-11-28T10:28:33.123Z,2264
2017-11-28T10:29:42.860Z,2740
2017-11-28T10:30:52.329Z,2348
2017-11-28T10:32:02.082Z,2556
2017-11-28T10:33:11.935Z,2196
2017-11-28T10:34:21.990Z,2072
2017-11-28T10:35:32.022Z,1880
2017-11-28T10:36:42.051Z,1576
2017-11-28T10:37:51.800Z,1216
2017-11-28T10:39:01.537Z,1064
2017-11-28T10:40:11.548Z,1060
2017-11-28T10:41:21.556Z,1356
2017-11-28T10:42:31.339Z,1576
2017-11-28T10:43:41.345Z,1408
2017-11-28T10:44:51.098Z,1164
2017-11-28T10:46:00.953Z,1128
2017-11-28T10:47:10.696Z,1560
2017-11-28T10:48:20.171Z,1580
2017-11-28T10:49:30.218Z,1336
2017-11-28T10:50:40.223Z,1280
2017-11-28T10:51:50.370Z,1328
2017-11-28T10:53:00.400Z,1340
2017-11-28T10:54:09.865Z,1444
2017-11-28T10:55:19.873Z,1696
2017-11-28T10:56:29.880Z,1692
2017-11-28T10:57:39.889Z,1560
2017-11-28T10:58:49.632Z,1684
2017-11-28T10:59:59.381Z,1788
2017-11-28T11:01:09.396Z,1872
2017-11-28T11:02:19.413Z,1864
2017-11-28T11:03:28.611Z,1712
2017-11-28T11:04:38.665Z,1696
2017-11-28T11:05:48.171Z,1664
2017-11-28T11:06:58.165Z,1628
2017-11-28T11:08:08.181Z,1644
2017-11-28T11:09:17.937Z,1716
2017-11-28T11:10:27.684Z,1744
2017-11-28T11:11:37.438Z,1724
2017-11-28T11:12:47.460Z,1760
2017-11-28T11:13:57.475Z,1776
2017-11-28T11:15:07.502Z,1948
2017-11-28T11:16:17.245Z,1992
2017-11-28T11:17:27.260Z,1916
2017-11-28T11:18:36.461Z,1884
2017-11-28T11:19:46.208Z,1824
2017-11-28T11:20:55.950Z,1932
2017-11-28T11:22:05.691Z,2008
2017-11-28T11:23:15.439Z,2120
2017-11-28T11:24:25.459Z,2188
2017-11-28T11:25:35.468Z,2380
2017-11-28T11:26:44.939Z,2456
2017-11-28T11:27:55.204Z,2568
2017-11-28T11:29:05.215Z,2464
2017-11-28T11:30:14.700Z,2524
2017-11-28T11:31:24.751Z,3216
2017-11-28T11:32:34.782Z,3036
2017-11-28T11:33:44.331Z,2388
2017-11-28T11:34:54.298Z,2372
2017-11-28T11:36:04.828Z,2256
2017-11-28T11:37:14.686Z,3336
2017-11-28T11:38:24.465Z,2716
2017-11-28T11:39:34.411Z,3324
2017-11-28T11:40:44.484Z,2280
2017-11-28T11:41:54.562Z,2340
2017-11-28T11:43:04.300Z,2328
2017-11-28T11:44:14.044Z,3116
2017-11-28T11:45:24.064Z,2720
2017-11-28T11:46:32.999Z,2912
2017-11-28T11:47:43.018Z,3296
2017-11-28T11:48:52.757Z,3268
2017-11-28T11:50:02.789Z,3324
2017-11-28T11:51:12.845Z,3060
2017-11-28T11:52:22.868Z,2304
2017-11-28T11:53:32.886Z,2080
2017-11-28T11:54:42.940Z,1992
2017-11-28T11:55:52.133Z,1916
2017-11-28T11:57:02.166Z,2252
2017-11-28T11:58:12.174Z,2052
2017-11-28T11:59:21.949Z,2096
2017-11-28T12:00:31.968Z,2260
2017-11-28T12:01:41.717Z,2348
2017-11-28T12:02:51.231Z,3356
2017-11-28T12:04:00.971Z,3124
2017-11-28T12:05:10.989Z,2508
2017-11-28T12:06:20.725Z,2620
2017-11-28T12:07:30.494Z,2668
2017-11-28T12:08:40.502Z,2308
2017-11-28T12:09:50.264Z,2280
2017-11-28T12:11:00.060Z,2220
2017-11-28T12:12:09.805Z,2344
2017-11-28T12:13:19.551Z,2512
2017-11-28T12:14:29.307Z,2304
2017-11-28T12:15:39.358Z,2232
2017-11-28T12:16:48.844Z,3072
2017-11-28T12:17:58.605Z,2880
2017-11-28T12:19:08.341Z,4252
2017-11-28T12:20:18.359Z,2948
2017-11-28T12:21:28.375Z,3600
2017-11-28T12:22:38.217Z,3860
2017-11-28T12:23:47.968Z,2500
2017-11-28T12:24:57.700Z,3276
2017-11-28T12:26:07.169Z,2920
2017-11-28T12:27:16.911Z,3516
2017-11-28T12:28:26.503Z,2752
2017-11-28T12:29:36.031Z,2556
2017-11-28T12:30:46.139Z,2448
2017-11-28T12:31:55.885Z,2696
2017-11-28T12:33:05.636Z,2512
2017-11-28T12:34:15.657Z,2368
2017-11-28T12:35:26.220Z,2372
2017-11-28T12:36:35.956Z,2060
2017-11-28T12:37:45.158Z,2084
2017-11-28T12:38:54.909Z,2124
2017-11-28T12:40:04.649Z,2480
2017-11-28T12:41:14.667Z,2692
2017-11-28T12:42:24.682Z,1916
2017-11-28T12:43:34.159Z,1928
2017-11-28T12:44:43.898Z,1984
2017-11-28T12:45:53.400Z,1800
2017-11-28T12:47:03.447Z,1628
2017-11-28T12:48:13.480Z,1636
2017-11-28T12:49:23.497Z,1684
2017-11-28T12:50:33.002Z,1660
2017-11-28T12:51:42.466Z,1668
2017-11-28T12:52:51.663Z,1644
2017-11-28T12:54:01.678Z,1612
2017-11-28T12:55:11.712Z,1536
2017-11-28T12:56:21.720Z,1504
2017-11-28T12:57:31.457Z,1564
2017-11-28T12:58:41.472Z,1660
2017-11-28T12:59:51.223Z,1680
2017-11-28T13:01:00.986Z,1724
2017-11-28T13:02:10.183Z,1656
2017-11-28T13:03:20.187Z,1720
2017-11-28T13:04:29.934Z,1796
2017-11-28T13:05:39.408Z,1836
2017-11-28T13:06:49.447Z,1944
2017-11-28T13:07:59.463Z,2112
2017-11-28T13:09:08.665Z,2220
2017-11-28T13:10:18.695Z,1920
2017-11-28T13:11:28.736Z,1704
2017-11-28T13:12:38.830Z,1660
2017-11-28T13:13:48.577Z,1836
2017-11-28T13:14:58.614Z,1836
2017-11-28T13:16:08.645Z,1832
2017-11-28T13:17:18.782Z,1808
2017-11-28T13:18:28.260Z,1792
2017-11-28T13:19:37.995Z,1916
2017-11-28T13:20:47.746Z,2092
2017-11-28T13:21:57.492Z,3060
2017-11-28T13:23:07.012Z,2988
2017-11-28T13:24:16.759Z,2796
2017-11-28T13:25:26.230Z,2448
2017-11-28T13:26:35.991Z,1668
2017-11-28T13:27:45.737Z,2420
2017-11-28T13:28:55.206Z,2864
2017-11-28T13:30:04.942Z,2132
2017-11-28T13:31:13.871Z,2808
2017-11-28T13:32:23.701Z,2620
2017-11-28T13:33:33.454Z,2716
2017-11-28T13:34:43.248Z,2792
2017-11-28T13:35:52.715Z,2632
2017-11-28T13:37:02.723Z,2156
2017-11-28T13:38:12.748Z,1500
2017-11-28T13:39:22.489Z,1412
2017-11-28T13:40:32.497Z,1440
2017-11-28T13:41:42.297Z,1388
2017-11-28T13:42:52.320Z,1472
2017-11-28T13:44:02.226Z,1512
2017-11-28T13:45:12.340Z,1520
2017-11-28T13:46:22.347Z,1576
2017-11-28T13:47:32.090Z,1512
2017-11-28T13:48:42.097Z,1904
2017-11-28T13:49:51.853Z,1580
2017-11-28T13:51:01.323Z,1504
2017-11-28T13:52:11.338Z,1432
2017-11-28T13:53:20.813Z,1308
2017-11-28T13:54:30.371Z,1236
2017-11-28T13:55:40.121Z,1216
2017-11-28T13:56:49.870Z,1212
2017-11-28T13:57:59.336Z,1196
2017-11-28T13:59:08.805Z,1176
2017-11-28T14:00:18.542Z,1180
2017-11-28T14:01:28.315Z,1220
2017-11-28T14:02:38.057Z,1168
2017-11-28T14:03:48.076Z,1124
2017-11-28T14:04:58.093Z,1100
2017-11-28T14:06:07.863Z,1112
2017-11-28T14:07:17.615Z,1112
2017-11-28T14:08:27.080Z,1168
2017-11-28T14:09:37.151Z,1220
2017-11-28T14:10:46.911Z,1252
2017-11-28T14:11:56.654Z,1320
2017-11-28T14:13:06.127Z,1332
2017-11-28T14:14:15.877Z,1312
2017-11-28T14:15:25.889Z,1332
2017-11-28T14:16:35.938Z,1368
2017-11-28T14:17:45.952Z,1388
2017-11-28T14:18:56.007Z,1428
2017-11-28T14:20:05.284Z,1376
2017-11-28T14:21:14.763Z,1304
2017-11-28T14:22:24.792Z,1264
2017-11-28T14:23:34.805Z,1208
2017-11-28T14:24:44.285Z,1156
2017-11-28T14:25:53.753Z,1112
2017-11-28T14:27:03.761Z,1060
2017-11-28T14:28:13.518Z,1024
2017-11-28T14:29:22.453Z,980
2017-11-28T14:30:32.492Z,932
2017-11-28T14:31:42.238Z,880
2017-11-28T14:32:52.292Z,828
2017-11-28T14:34:02.368Z,776
2017-11-28T14:35:12.151Z,732
2017-11-28T14:36:22.263Z,676
2017-11-28T14:37:32.281Z,612
2017-11-28T14:38:42.290Z,552
2017-11-28T14:39:52.313Z,516
2017-11-28T14:41:01.515Z,468
2017-11-28T14:42:11.520Z,428
2017-11-28T14:43:21.580Z,396
2017-11-28T14:44:31.333Z,356
2017-11-28T14:45:40.847Z,328
2017-11-28T14:46:50.962Z,300
2017-11-28T14:48:00.760Z,264
2017-11-28T14:49:10.385Z,240
2017-11-28T14:50:20.141Z,232
2017-11-28T14:51:29.960Z,264
2017-11-28T14:52:39.222Z,304
2017-11-28T14:53:49.242Z,324
2017-11-28T14:54:58.981Z,312
2017-11-28T14:56:08.779Z,284
2017-11-28T14:57:18.513Z,252
2017-11-28T14:58:27.995Z,232
2017-11-28T14:59:38.037Z,204
2017-11-28T15:00:48.075Z,216
2017-11-28T15:01:58.144Z,216
2017-11-28T15:03:07.880Z,208
2017-11-28T15:04:17.887Z,204
2017-11-28T15:05:27.619Z,188
2017-11-28T15:06:37.362Z,180
2017-11-28T15:07:46.830Z,164
2017-11-28T15:08:56.718Z,140
2017-11-28T15:10:06.480Z,112
2017-11-28T15:11:16.493Z,96
2017-11-28T15:12:26.031Z,80
2017-11-28T15:13:36.129Z,72
2017-11-28T15:14:46.257Z,64
2017-11-28T15:15:56.041Z,56
2017-11-28T15:17:05.574Z,48
2017-11-28T15:18:15.632Z,44
2017-11-28T15:19:25.397Z,48
2017-11-28T15:20:35.227Z,48
2017-11-28T15:21:45.269Z,44
2017-11-28T15:22:55.273Z,40
2017-11-28T15:24:05.438Z,36
2017-11-28T15:25:15.538Z,32
2017-11-28T15:26:25.305Z,32
2017-11-28T15:27:34.833Z,28
2017-11-28T15:28:44.739Z,28
2017-11-28T15:29:54.618Z,28
2017-11-28T15:31:04.728Z,28
2017-11-28T15:32:14.208Z,28
2017-11-28T15:33:24.219Z,24
2017-11-28T15:34:34.278Z,28
2017-11-28T15:35:44.311Z,28
2017-11-28T15:36:54.433Z,24
2017-11-28T15:38:04.593Z,24
2017-11-28T15:39:14.405Z,16
2017-11-28T15:40:24.408Z,12
2017-11-28T15:41:34.254Z,12
2017-11-28T15:42:44.298Z,8
2017-11-28T15:43:54.032Z,8
2017-11-28T15:45:03.959Z,8
2017-11-28T15:46:13.516Z,4
2017-11-28T15:47:23.043Z,4
2017-11-28T15:48:32.310Z,4
2017-11-28T15:49:42.315Z,4
2017-11-28T15:50:52.345Z,4
2017-11-28T15:52:01.811Z,8
2017-11-28T15:53:11.841Z,4
2017-11-28T15:54:21.857Z,4
2017-11-28T15:55:31.659Z,4
2017-11-28T15:56:41.235Z,4
2017-11-28T15:57:50.754Z,4
2017-11-28T15:59:00.509Z,4
2017-11-28T16:00:09.751Z,4
2017-11-28T16:01:19.847Z,4
2017-11-28T16:02:29.619Z,4
2017-11-28T16:03:39.654Z,4
2017-11-28T16:04:49.662Z,4
2017-11-28T16:05:59.444Z,4
2017-11-28T16:07:08.926Z,4
2017-11-28T16:08:18.720Z,0
2017-11-28T16:09:28.271Z,0
2017-11-28T16:10:38.335Z,0
2017-11-28T16:11:47.869Z,0
2017-11-28T16:12:57.636Z,0
2017-11-28T16:14:07.672Z,4
2017-11-28T16:15:17.160Z,4
2017-11-28T16:16:26.910Z,4
2017-11-28T16:17:36.928Z,4
2017-11-28T16:18:46.388Z,4
2017-11-28T16:19:56.396Z,4
2017-11-28T16:21:05.874Z,4
2017-11-28T16:22:15.648Z,4
2017-11-28T16:23:25.165Z,4